sensor_id;sensor_type;location;lat;lon;timestamp;temperature;humidity
63371;DHT22;49504;48.336;14.472;2022-11-11T00:03:23;25.40;49.10
63371;DHT22;49504;48.336;14.472;2022-11-11T00:08:24;25.40;49.10
63371;DHT22;49504;48.336;14.472;2022-11-11T00:19:51;25.40;48.80
63371;DHT22;49504;48.336;14.472;2022-11-11T00:26:26;25.40;48.70
63371;DHT22;49504;48.336;14.472;2022-11-11T00:31:27;25.40;49.00
63371;DHT22;49504;48.336;14.472;2022-11-11T00:36:28;25.40;48.90
63371;DHT22;49504;48.336;14.472;2022-11-11T00:41:48;25.40;48.40
63371;DHT22;49504;48.336;14.472;2022-11-11T00:46:49;25.40;48.80
63371;DHT22;49504;48.336;14.472;2022-11-11T00:51:50;25.40;48.70
63371;DHT22;49504;48.336;14.472;2022-11-11T00:56:52;25.40;48.70
63371;DHT22;49504;48.336;14.472;2022-11-11T01:01:53;25.40;48.70
63371;DHT22;49504;48.336;14.472;2022-11-11T01:06:54;25.40;48.60
63371;DHT22;49504;48.336;14.472;2022-11-11T01:11:57;25.40;48.70
63371;DHT22;49504;48.336;14.472;2022-11-11T01:16:58;25.40;48.60
63371;DHT22;49504;48.336;14.472;2022-11-11T01:21:59;25.40;48.50
63371;DHT22;49504;48.336;14.472;2022-11-11T01:27:01;25.40;48.50
63371;DHT22;49504;48.336;14.472;2022-11-11T01:32:02;25.40;48.50
63371;DHT22;49504;48.336;14.472;2022-11-11T01:37:03;25.40;48.50
63371;DHT22;49504;48.336;14.472;2022-11-11T01:42:06;25.40;48.40
63371;DHT22;49504;48.336;14.472;2022-11-11T01:47:07;25.40;48.40
63371;DHT22;49504;48.336;14.472;2022-11-11T01:52:11;25.40;48.60
63371;DHT22;49504;48.336;14.472;2022-11-11T01:57:18;25.40;48.40
63371;DHT22;49504;48.336;14.472;2022-11-11T02:02:26;25.40;48.40
63371;DHT22;49504;48.336;14.472;2022-11-11T02:07:31;25.40;48.30
63371;DHT22;49504;48.336;14.472;2022-11-11T02:12:34;25.40;48.30
63371;DHT22;49504;48.336;14.472;2022-11-11T02:17:35;25.40;48.30
63371;DHT22;49504;48.336;14.472;2022-11-11T02:22:41;25.40;48.20
63371;DHT22;49504;48.336;14.472;2022-11-11T02:27:49;25.40;48.30
63371;DHT22;49504;48.336;14.472;2022-11-11T02:32:52;25.40;48.30
63371;DHT22;49504;48.336;14.472;2022-11-11T02:37:53;25.40;48.20
63371;DHT22;49504;48.336;14.472;2022-11-11T02:42:56;25.40;48.20
63371;DHT22;49504;48.336;14.472;2022-11-11T02:47:57;25.40;48.20
63371;DHT22;49504;48.336;14.472;2022-11-11T02:52:58;25.40;48.10
63371;DHT22;49504;48.336;14.472;2022-11-11T02:58:00;25.40;48.10
63371;DHT22;49504;48.336;14.472;2022-11-11T03:03:01;25.40;48.20
63371;DHT22;49504;48.336;14.472;2022-11-11T03:10:58;25.30;47.70
63371;DHT22;49504;48.336;14.472;2022-11-11T03:15:58;25.40;48.00
63371;DHT22;49504;48.336;14.472;2022-11-11T03:20:59;25.40;48.10
63371;DHT22;49504;48.336;14.472;2022-11-11T03:26:02;25.40;48.10
63371;DHT22;49504;48.336;14.472;2022-11-11T03:31:03;25.40;48.00
63371;DHT22;49504;48.336;14.472;2022-11-11T03:36:04;25.30;47.90
63371;DHT22;49504;48.336;14.472;2022-11-11T03:41:07;25.40;47.90
63371;DHT22;49504;48.336;14.472;2022-11-11T03:46:08;25.30;47.80
63371;DHT22;49504;48.336;14.472;2022-11-11T03:51:09;25.30;47.70
63371;DHT22;49504;48.336;14.472;2022-11-11T03:56:11;25.30;47.70
63371;DHT22;49504;48.336;14.472;2022-11-11T04:01:12;25.30;47.70
63371;DHT22;49504;48.336;14.472;2022-11-11T04:06:13;25.40;47.70
63371;DHT22;49504;48.336;14.472;2022-11-11T04:11:21;25.30;47.70
63371;DHT22;49504;48.336;14.472;2022-11-11T04:16:24;25.30;47.70
63371;DHT22;49504;48.336;14.472;2022-11-11T04:21:25;25.30;47.60
63371;DHT22;49504;48.336;14.472;2022-11-11T04:26:27;25.30;47.70
63371;DHT22;49504;48.336;14.472;2022-11-11T04:31:28;25.30;47.60
63371;DHT22;49504;48.336;14.472;2022-11-11T04:36:29;25.30;47.60
63371;DHT22;49504;48.336;14.472;2022-11-11T04:44:03;25.30;47.30
63371;DHT22;49504;48.336;14.472;2022-11-11T04:49:04;25.30;47.90
63371;DHT22;49504;48.336;14.472;2022-11-11T04:54:05;25.30;47.90
63371;DHT22;49504;48.336;14.472;2022-11-11T04:59:38;25.30;47.50
63371;DHT22;49504;48.336;14.472;2022-11-11T05:04:39;25.30;48.10
63371;DHT22;49504;48.336;14.472;2022-11-11T05:09:40;25.30;48.30
63371;DHT22;49504;48.336;14.472;2022-11-11T05:14:42;25.30;48.10
63371;DHT22;49504;48.336;14.472;2022-11-11T05:19:43;25.30;48.00
63371;DHT22;49504;48.336;14.472;2022-11-11T05:24:44;25.30;48.10
63371;DHT22;49504;48.336;14.472;2022-11-11T05:29:47;25.30;48.40
63371;DHT22;49504;48.336;14.472;2022-11-11T05:34:48;25.30;48.20
63371;DHT22;49504;48.336;14.472;2022-11-11T05:39:49;25.30;48.10
63371;DHT22;49504;48.336;14.472;2022-11-11T05:44:51;25.30;46.70
63371;DHT22;49504;48.336;14.472;2022-11-11T05:49:52;25.30;46.80
63371;DHT22;49504;48.336;14.472;2022-11-11T05:54:53;25.30;47.60
63371;DHT22;49504;48.336;14.472;2022-11-11T05:59:56;25.30;47.80
63371;DHT22;49504;48.336;14.472;2022-11-11T06:04:57;25.20;44.90
63371;DHT22;49504;48.336;14.472;2022-11-11T06:09:58;25.20;45.50
63371;DHT22;49504;48.336;14.472;2022-11-11T06:15:00;25.20;43.90
63371;DHT22;49504;48.336;14.472;2022-11-11T06:20:01;25.10;43.90
63371;DHT22;49504;48.336;14.472;2022-11-11T06:25:02;25.10;44.90
63371;DHT22;49504;48.336;14.472;2022-11-11T06:30:06;25.10;45.40
63371;DHT22;49504;48.336;14.472;2022-11-11T06:35:08;25.10;45.90
63371;DHT22;49504;48.336;14.472;2022-11-11T06:40:10;25.10;46.20
63371;DHT22;49504;48.336;14.472;2022-11-11T06:45:13;25.10;46.40
63371;DHT22;49504;48.336;14.472;2022-11-11T06:50:14;25.10;46.60
63371;DHT22;49504;48.336;14.472;2022-11-11T06:59:14;25.10;46.20
63371;DHT22;49504;48.336;14.472;2022-11-11T07:04:15;25.10;46.70
63371;DHT22;49504;48.336;14.472;2022-11-11T07:09:16;25.10;46.80
63371;DHT22;49504;48.336;14.472;2022-11-11T07:14:19;25.10;46.80
63371;DHT22;49504;48.336;14.472;2022-11-11T07:19:19;25.10;46.90
63371;DHT22;49504;48.336;14.472;2022-11-11T07:24:21;25.10;46.90
63371;DHT22;49504;48.336;14.472;2022-11-11T07:29:23;25.10;46.90
63371;DHT22;49504;48.336;14.472;2022-11-11T07:34:24;25.10;46.90
63371;DHT22;49504;48.336;14.472;2022-11-11T07:39:25;25.10;46.90
63371;DHT22;49504;48.336;14.472;2022-11-11T07:44:28;25.10;47.00
63371;DHT22;49504;48.336;14.472;2022-11-11T07:56:49;25.10;45.80
63371;DHT22;49504;48.336;14.472;2022-11-11T08:01:50;25.10;45.60
63371;DHT22;49504;48.336;14.472;2022-11-11T08:06:51;25.00;45.60
63371;DHT22;49504;48.336;14.472;2022-11-11T08:11:53;25.10;45.90
63371;DHT22;49504;48.336;14.472;2022-11-11T08:16:54;25.00;46.00
63371;DHT22;49504;48.336;14.472;2022-11-11T08:21:55;25.00;46.40
63371;DHT22;49504;48.336;14.472;2022-11-11T08:26:57;25.00;46.30
63371;DHT22;49504;48.336;14.472;2022-11-11T08:31:58;25.00;46.40
63371;DHT22;49504;48.336;14.472;2022-11-11T08:36:59;25.00;46.50
63371;DHT22;49504;48.336;14.472;2022-11-11T08:42:02;25.10;46.70
63371;DHT22;49504;48.336;14.472;2022-11-11T08:47:03;25.00;46.60
63371;DHT22;49504;48.336;14.472;2022-11-11T08:52:04;25.10;46.70
63371;DHT22;49504;48.336;14.472;2022-11-11T08:57:07;25.10;46.80
63371;DHT22;49504;48.336;14.472;2022-11-11T09:02:10;25.00;46.80
63371;DHT22;49504;48.336;14.472;2022-11-11T09:07:11;25.00;46.80
63371;DHT22;49504;48.336;14.472;2022-11-11T09:12:14;25.10;47.70
63371;DHT22;49504;48.336;14.472;2022-11-11T09:17:15;25.10;47.00
63371;DHT22;49504;48.336;14.472;2022-11-11T09:22:16;25.10;47.10
63371;DHT22;49504;48.336;14.472;2022-11-11T09:27:18;25.10;47.30
63371;DHT22;49504;48.336;14.472;2022-11-11T09:32:19;25.10;45.80
63371;DHT22;49504;48.336;14.472;2022-11-11T09:37:20;25.10;45.90
63371;DHT22;49504;48.336;14.472;2022-11-11T09:42:32;25.10;45.90
63371;DHT22;49504;48.336;14.472;2022-11-11T09:47:43;25.10;46.10
63371;DHT22;49504;48.336;14.472;2022-11-11T09:52:55;25.10;46.20
63371;DHT22;49504;48.336;14.472;2022-11-11T09:58:02;25.10;46.30
63371;DHT22;49504;48.336;14.472;2022-11-11T10:03:10;25.10;46.30
63371;DHT22;49504;48.336;14.472;2022-11-11T10:08:17;25.10;46.40
63371;DHT22;49504;48.336;14.472;2022-11-11T10:13:27;25.10;46.60
63371;DHT22;49504;48.336;14.472;2022-11-11T10:18:48;25.10;46.80
63371;DHT22;49504;48.336;14.472;2022-11-11T10:23:55;25.10;46.80
63371;DHT22;49504;48.336;14.472;2022-11-11T10:29:04;25.10;46.80
63371;DHT22;49504;48.336;14.472;2022-11-11T10:34:09;25.10;46.90
63371;DHT22;49504;48.336;14.472;2022-11-11T10:39:16;25.10;46.90
63371;DHT22;49504;48.336;14.472;2022-11-11T10:44:25;25.10;47.00
63371;DHT22;49504;48.336;14.472;2022-11-11T10:49:30;25.10;47.10
63371;DHT22;49504;48.336;14.472;2022-11-11T10:54:35;25.20;47.20
63371;DHT22;49504;48.336;14.472;2022-11-11T10:59:43;25.20;46.90
63371;DHT22;49504;48.336;14.472;2022-11-11T11:06:52;25.10;46.40
63371;DHT22;49504;48.336;14.472;2022-11-11T11:11:58;25.10;47.10
63371;DHT22;49504;48.336;14.472;2022-11-11T11:17:06;25.10;47.10
63371;DHT22;49504;48.336;14.472;2022-11-11T11:22:10;25.20;47.20
63371;DHT22;49504;48.336;14.472;2022-11-11T11:27:25;25.10;47.20
63371;DHT22;49504;48.336;14.472;2022-11-11T11:32:27;25.20;47.30
63371;DHT22;49504;48.336;14.472;2022-11-11T11:40:27;25.10;46.90
63371;DHT22;49504;48.336;14.472;2022-11-11T11:49:28;25.10;47.00
63371;DHT22;49504;48.336;14.472;2022-11-11T11:54:52;25.20;47.90
63371;DHT22;49504;48.336;14.472;2022-11-11T12:00:00;25.30;47.80
63371;DHT22;49504;48.336;14.472;2022-11-11T12:05:10;25.50;47.80
63371;DHT22;49504;48.336;14.472;2022-11-11T12:10:25;25.70;47.80
63371;DHT22;49504;48.336;14.472;2022-11-11T12:23:56;26.30;47.00
63371;DHT22;49504;48.336;14.472;2022-11-11T12:29:11;26.50;46.40
63371;DHT22;49504;48.336;14.472;2022-11-11T12:34:31;26.70;46.10
63371;DHT22;49504;48.336;14.472;2022-11-11T12:39:52;26.90;45.80
63371;DHT22;49504;48.336;14.472;2022-11-11T12:45:09;27.10;45.60
63371;DHT22;49504;48.336;14.472;2022-11-11T12:50:20;27.20;45.20
63371;DHT22;49504;48.336;14.472;2022-11-11T12:55:29;27.20;45.00
63371;DHT22;49504;48.336;14.472;2022-11-11T13:00:40;27.20;45.10
63371;DHT22;49504;48.336;14.472;2022-11-11T13:06:01;27.20;44.80
63371;DHT22;49504;48.336;14.472;2022-11-11T13:11:13;27.20;45.00
63371;DHT22;49504;48.336;14.472;2022-11-11T13:16:21;27.10;44.70
63371;DHT22;49504;48.336;14.472;2022-11-11T13:21:30;27.00;44.70
63371;DHT22;49504;48.336;14.472;2022-11-11T13:26:37;27.00;44.90
63371;DHT22;49504;48.336;14.472;2022-11-11T13:34:45;26.90;44.70
63371;DHT22;49504;48.336;14.472;2022-11-11T13:39:48;26.90;45.00
63371;DHT22;49504;48.336;14.472;2022-11-11T13:44:51;26.80;45.10
63371;DHT22;49504;48.336;14.472;2022-11-11T13:49:58;26.80;45.20
63371;DHT22;49504;48.336;14.472;2022-11-11T13:55:02;26.80;45.30
63371;DHT22;49504;48.336;14.472;2022-11-11T14:00:22;26.80;45.20
63371;DHT22;49504;48.336;14.472;2022-11-11T14:05:26;26.80;45.60
63371;DHT22;49504;48.336;14.472;2022-11-11T14:10:49;26.80;45.70
63371;DHT22;49504;48.336;14.472;2022-11-11T14:19:32;26.70;45.10
63371;DHT22;49504;48.336;14.472;2022-11-11T14:27:34;26.60;45.10
63371;DHT22;49504;48.336;14.472;2022-11-11T14:32:45;26.70;45.50
63371;DHT22;49504;48.336;14.472;2022-11-11T14:38:13;26.70;45.70
63371;DHT22;49504;48.336;14.472;2022-11-11T14:43:39;26.60;45.80
63371;DHT22;49504;48.336;14.472;2022-11-11T14:48:57;26.50;45.70
63371;DHT22;49504;48.336;14.472;2022-11-11T14:54:01;26.50;46.00
63371;DHT22;49504;48.336;14.472;2022-11-11T15:02:03;26.50;45.70
63371;DHT22;49504;48.336;14.472;2022-11-11T15:07:24;26.50;46.50
63371;DHT22;49504;48.336;14.472;2022-11-11T15:12:44;26.40;46.50
63371;DHT22;49504;48.336;14.472;2022-11-11T15:18:01;26.40;46.60
63371;DHT22;49504;48.336;14.472;2022-11-11T15:23:16;26.40;46.70
63371;DHT22;49504;48.336;14.472;2022-11-11T15:28:47;26.40;46.80
63371;DHT22;49504;48.336;14.472;2022-11-11T15:35:36;26.30;46.10
63371;DHT22;49504;48.336;14.472;2022-11-11T15:40:44;26.30;46.40
63371;DHT22;49504;48.336;14.472;2022-11-11T15:48:34;26.20;46.00
63371;DHT22;49504;48.336;14.472;2022-11-11T15:53:39;26.20;46.90
63371;DHT22;49504;48.336;14.472;2022-11-11T15:58:40;26.20;46.90
63371;DHT22;49504;48.336;14.472;2022-11-11T16:03:43;26.20;47.10
63371;DHT22;49504;48.336;14.472;2022-11-11T16:08:47;26.20;47.20
63371;DHT22;49504;48.336;14.472;2022-11-11T16:13:53;26.20;47.20
63371;DHT22;49504;48.336;14.472;2022-11-11T16:18:59;26.20;47.20
63371;DHT22;49504;48.336;14.472;2022-11-11T16:24:03;26.20;47.10
63371;DHT22;49504;48.336;14.472;2022-11-11T16:29:12;26.20;47.00
63371;DHT22;49504;48.336;14.472;2022-11-11T16:34:35;26.20;47.40
63371;DHT22;49504;48.336;14.472;2022-11-11T16:39:41;26.20;47.40
63371;DHT22;49504;48.336;14.472;2022-11-11T16:44:47;26.20;47.20
63371;DHT22;49504;48.336;14.472;2022-11-11T16:50:00;26.20;47.20
63371;DHT22;49504;48.336;14.472;2022-11-11T16:55:03;26.20;47.10
63371;DHT22;49504;48.336;14.472;2022-11-11T17:00:06;26.20;47.10
63371;DHT22;49504;48.336;14.472;2022-11-11T17:05:13;26.20;47.10
63371;DHT22;49504;48.336;14.472;2022-11-11T17:10:17;26.20;46.90
63371;DHT22;49504;48.336;14.472;2022-11-11T17:19:49;26.20;46.60
63371;DHT22;49504;48.336;14.472;2022-11-11T17:25:34;26.20;46.90
63371;DHT22;49504;48.336;14.472;2022-11-11T17:30:35;26.20;47.90
63371;DHT22;49504;48.336;14.472;2022-11-11T17:35:36;26.20;48.00
63371;DHT22;49504;48.336;14.472;2022-11-11T17:40:43;26.20;48.10
63371;DHT22;49504;48.336;14.472;2022-11-11T17:45:44;26.10;48.00
63371;DHT22;49504;48.336;14.472;2022-11-11T17:50:45;26.10;48.00
63371;DHT22;49504;48.336;14.472;2022-11-11T17:55:48;26.10;48.10
63371;DHT22;49504;48.336;14.472;2022-11-11T18:00:49;26.00;48.10
63371;DHT22;49504;48.336;14.472;2022-11-11T18:05:52;26.10;48.30
63371;DHT22;49504;48.336;14.472;2022-11-11T18:10:59;26.00;48.30
63371;DHT22;49504;48.336;14.472;2022-11-11T18:16:00;26.00;48.30
63371;DHT22;49504;48.336;14.472;2022-11-11T18:21:03;26.00;48.40
63371;DHT22;49504;48.336;14.472;2022-11-11T18:26:06;26.00;48.40
63371;DHT22;49504;48.336;14.472;2022-11-11T18:31:09;25.90;48.30
63371;DHT22;49504;48.336;14.472;2022-11-11T18:36:12;25.90;48.10
63371;DHT22;49504;48.336;14.472;2022-11-11T18:41:17;25.90;48.10
63371;DHT22;49504;48.336;14.472;2022-11-11T18:46:20;25.90;48.10
63371;DHT22;49504;48.336;14.472;2022-11-11T18:51:22;25.90;48.40
63371;DHT22;49504;48.336;14.472;2022-11-11T18:56:26;25.90;48.50
63371;DHT22;49504;48.336;14.472;2022-11-11T19:06:20;25.80;47.70
63371;DHT22;49504;48.336;14.472;2022-11-11T19:16:02;25.80;47.70
63371;DHT22;49504;48.336;14.472;2022-11-11T19:21:10;25.80;48.40
63371;DHT22;49504;48.336;14.472;2022-11-11T19:26:13;25.80;48.50
63371;DHT22;49504;48.336;14.472;2022-11-11T19:31:16;25.80;48.60
63371;DHT22;49504;48.336;14.472;2022-11-11T19:36:19;25.80;48.60
63371;DHT22;49504;48.336;14.472;2022-11-11T19:41:23;25.80;48.60
63371;DHT22;49504;48.336;14.472;2022-11-11T19:46:27;25.70;48.60
63371;DHT22;49504;48.336;14.472;2022-11-11T19:51:28;25.80;48.60
63371;DHT22;49504;48.336;14.472;2022-11-11T19:56:29;25.80;48.60
63371;DHT22;49504;48.336;14.472;2022-11-11T20:01:32;25.70;48.50
63371;DHT22;49504;48.336;14.472;2022-11-11T20:06:34;25.70;48.50
63371;DHT22;49504;48.336;14.472;2022-11-11T20:11:39;25.70;48.60
63371;DHT22;49504;48.336;14.472;2022-11-11T20:16:43;25.70;48.60
63371;DHT22;49504;48.336;14.472;2022-11-11T20:21:44;25.70;48.60
63371;DHT22;49504;48.336;14.472;2022-11-11T20:26:45;25.70;48.60
63371;DHT22;49504;48.336;14.472;2022-11-11T20:31:47;25.70;48.70
63371;DHT22;49504;48.336;14.472;2022-11-11T20:36:48;25.70;48.70
63371;DHT22;49504;48.336;14.472;2022-11-11T20:41:49;25.70;48.70
63371;DHT22;49504;48.336;14.472;2022-11-11T20:46:52;25.70;48.40
63371;DHT22;49504;48.336;14.472;2022-11-11T20:51:54;25.70;48.70
63371;DHT22;49504;48.336;14.472;2022-11-11T21:00:33;25.60;48.00
63371;DHT22;49504;48.336;14.472;2022-11-11T21:05:34;25.70;48.90
63371;DHT22;49504;48.336;14.472;2022-11-11T21:10:35;25.60;48.70
63371;DHT22;49504;48.336;14.472;2022-11-11T21:15:37;25.60;48.60
63371;DHT22;49504;48.336;14.472;2022-11-11T21:20:38;25.60;48.80
63371;DHT22;49504;48.336;14.472;2022-11-11T21:25:39;25.60;48.70
63371;DHT22;49504;48.336;14.472;2022-11-11T21:30:41;25.60;48.90
63371;DHT22;49504;48.336;14.472;2022-11-11T21:37:44;25.60;48.30
63371;DHT22;49504;48.336;14.472;2022-11-11T21:42:45;25.60;49.30
63371;DHT22;49504;48.336;14.472;2022-11-11T21:47:46;25.60;49.00
63371;DHT22;49504;48.336;14.472;2022-11-11T21:52:48;25.60;49.30
63371;DHT22;49504;48.336;14.472;2022-11-11T21:57:50;25.60;49.40
63371;DHT22;49504;48.336;14.472;2022-11-11T22:02:51;25.60;49.40
63371;DHT22;49504;48.336;14.472;2022-11-11T22:07:53;25.60;49.50
63371;DHT22;49504;48.336;14.472;2022-11-11T22:12:54;25.60;49.40
63371;DHT22;49504;48.336;14.472;2022-11-11T22:17:55;25.60;49.50
63371;DHT22;49504;48.336;14.472;2022-11-11T22:22:57;25.70;49.60
63371;DHT22;49504;48.336;14.472;2022-11-11T22:27:58;25.70;49.50
63371;DHT22;49504;48.336;14.472;2022-11-11T22:32:59;25.70;49.50
63371;DHT22;49504;48.336;14.472;2022-11-11T22:38:02;25.70;49.50
63371;DHT22;49504;48.336;14.472;2022-11-11T22:43:02;25.60;49.30
63371;DHT22;49504;48.336;14.472;2022-11-11T22:48:04;25.60;49.40
63371;DHT22;49504;48.336;14.472;2022-11-11T22:53:07;25.60;49.40
63371;DHT22;49504;48.336;14.472;2022-11-11T22:58:08;25.60;49.30
63371;DHT22;49504;48.336;14.472;2022-11-11T23:03:09;25.60;49.40
63371;DHT22;49504;48.336;14.472;2022-11-11T23:08:12;25.60;49.40
63371;DHT22;49504;48.336;14.472;2022-11-11T23:13:13;25.60;49.30
63371;DHT22;49504;48.336;14.472;2022-11-11T23:18:13;25.60;49.30
63371;DHT22;49504;48.336;14.472;2022-11-11T23:28:17;25.60;48.70
63371;DHT22;49504;48.336;14.472;2022-11-11T23:33:18;25.60;49.20
63371;DHT22;49504;48.336;14.472;2022-11-11T23:38:19;25.60;49.20
63371;DHT22;49504;48.336;14.472;2022-11-11T23:43:21;25.60;49.10
63371;DHT22;49504;48.336;14.472;2022-11-11T23:48:23;25.60;49.20
63371;DHT22;49504;48.336;14.472;2022-11-11T23:53:25;25.60;49.10
63371;DHT22;49504;48.336;14.472;2022-11-11T23:59:00;25.60;48.50
